createdAt,value
2022-09-25T07:23:31.521Z,12.12
2022-09-25T07:26:11.547Z,12.16
2022-09-25T07:28:48.418Z,12.21
2022-09-25T07:31:27.924Z,12.26
2022-09-25T07:34:09.721Z,12.33
2022-09-25T07:36:47.962Z,12.39
2022-09-25T07:39:27.424Z,12.46
2022-09-25T07:42:04.617Z,12.52
2022-09-25T07:44:46.049Z,12.57
2022-09-25T07:47:25.339Z,12.67
2022-09-25T07:50:03.271Z,12.76
2022-09-25T07:52:41.629Z,12.86
2022-09-25T07:55:21.641Z,12.98
2022-09-25T07:58:01.424Z,13.07
2022-09-25T08:00:38.323Z,13.15
2022-09-25T08:03:17.028Z,13.23
2022-09-25T08:06:02.410Z,13.35
2022-09-25T08:08:41.791Z,13.40
2022-09-25T08:11:23.709Z,13.50
2022-09-25T08:14:01.178Z,13.58
2022-09-25T08:16:38.226Z,13.70
2022-09-25T08:19:18.125Z,13.77
2022-09-25T08:21:54.833Z,13.82
2022-09-25T08:24:32.822Z,13.92
2022-09-25T08:27:12.419Z,14.02
2022-09-25T08:29:49.799Z,14.11
2022-09-25T08:32:26.510Z,14.17
2022-09-25T08:35:04.074Z,14.25
2022-09-25T08:37:45.632Z,14.33
2022-09-25T08:40:31.182Z,14.44
2022-09-25T08:43:13.334Z,14.55
2022-09-25T08:46:04.423Z,14.62
2022-09-25T08:49:10.256Z,14.72
2022-09-25T08:51:53.142Z,14.83
2022-09-25T08:54:32.937Z,14.92
2022-09-25T08:57:31.751Z,14.99
2022-09-25T09:00:21.988Z,15.04
2022-09-25T09:03:02.712Z,15.12
2022-09-25T09:05:50.891Z,15.18
2022-09-25T09:08:32.535Z,15.30
2022-09-25T09:11:15.601Z,15.36
2022-09-25T09:13:56.483Z,15.40
2022-09-25T09:16:44.563Z,15.48
2022-09-25T09:19:21.822Z,15.51
2022-09-25T09:22:12.896Z,15.56
2022-09-25T09:25:05.131Z,15.62
2022-09-25T09:28:05.440Z,15.71
2022-09-25T09:30:52.244Z,15.78
2022-09-25T09:33:55.464Z,15.88
2022-09-25T09:36:48.334Z,15.97
2022-09-25T09:39:33.744Z,16.02
2022-09-25T09:42:21.035Z,16.08
2022-09-25T09:45:09.472Z,16.15
2022-09-25T09:47:52.749Z,16.22
2022-09-25T09:50:49.825Z,16.34
2022-09-25T09:53:37.327Z,16.48
2022-09-25T09:56:18.613Z,16.65
2022-09-25T09:59:00.508Z,16.79
2022-09-25T10:01:45.589Z,16.91
2022-09-25T10:04:29.656Z,17.03
2022-09-25T10:07:18.756Z,17.11
2022-09-25T10:09:58.973Z,17.19
2022-09-25T10:12:40.778Z,17.39
2022-09-25T10:15:29.740Z,17.71
2022-09-25T10:18:09.565Z,18.03
2022-09-25T10:20:53.322Z,18.27
2022-09-25T10:23:43.189Z,18.54
2022-09-25T10:26:33.538Z,18.79
2022-09-25T10:29:31.070Z,18.93
2022-09-25T10:32:09.391Z,19.12
2022-09-25T10:34:55.561Z,19.42
2022-09-25T10:37:37.992Z,19.53
2022-09-25T10:40:32.613Z,19.55
2022-09-25T10:43:21.019Z,19.74
2022-09-25T10:46:37.151Z,19.77
2022-09-25T10:49:33.923Z,19.90
2022-09-25T10:52:18.494Z,20.05
2022-09-25T10:55:16.509Z,20.25
2022-09-25T10:58:10.109Z,20.75
2022-09-25T11:01:01.215Z,21.00
2022-09-25T11:03:42.398Z,21.08
2022-09-25T11:06:27.907Z,21.25
2022-09-25T11:09:20.099Z,21.57
2022-09-25T11:12:10.078Z,21.99
2022-09-25T11:14:58.906Z,22.11
2022-09-25T11:17:47.101Z,22.06
2022-09-25T11:20:30.937Z,22.02
2022-09-25T11:23:32.766Z,22.28
2022-09-25T11:26:15.994Z,22.28
2022-09-25T11:29:01.600Z,22.62
2022-09-25T11:31:46.252Z,22.79
2022-09-25T11:34:46.187Z,22.92
2022-09-25T11:37:30.212Z,22.97
2022-09-25T11:40:39.948Z,23.17
2022-09-25T11:43:35.634Z,23.27
2022-09-25T11:46:27.183Z,23.36
2022-09-25T11:49:18.596Z,23.66
2022-09-25T11:52:48.144Z,23.73
2022-09-25T11:55:56.554Z,23.94
2022-09-25T11:58:57.725Z,24.10
2022-09-25T12:01:42.065Z,24.15
2022-09-25T12:05:00.735Z,24.33
2022-09-25T12:08:06.125Z,24.54
2022-09-25T12:10:58.636Z,24.52
2022-09-25T12:13:49.891Z,24.48
2022-09-25T12:16:41.220Z,24.49
2022-09-25T12:19:39.892Z,24.60
2022-09-25T12:22:29.308Z,24.59
2022-09-25T12:25:16.431Z,24.73
2022-09-25T12:28:01.520Z,24.79
2022-09-25T12:30:48.820Z,24.89
2022-09-25T12:33:35.811Z,24.77
2022-09-25T12:36:23.074Z,24.87
2022-09-25T12:39:28.560Z,24.65
2022-09-25T12:42:17.281Z,24.30
2022-09-25T12:45:00.847Z,23.86
2022-09-25T12:47:46.722Z,23.63
2022-09-25T12:50:32.715Z,23.23
2022-09-25T12:53:33.972Z,22.51
2022-09-25T12:56:19.759Z,22.23
2022-09-25T12:59:07.872Z,21.84
2022-09-25T13:01:56.334Z,21.42
2022-09-25T13:04:52.448Z,21.14
2022-09-25T13:07:38.534Z,20.90
2022-09-25T13:10:30.725Z,20.73
2022-09-25T13:13:17.810Z,20.52
2022-09-25T13:16:02.001Z,20.40
2022-09-25T13:18:42.012Z,20.24
2022-09-25T13:21:40.429Z,20.12
2022-09-25T13:24:22.961Z,19.96
2022-09-25T13:27:07.461Z,19.83
2022-09-25T13:29:45.914Z,19.70
2022-09-25T13:32:29.450Z,19.58
2022-09-25T13:35:26.834Z,19.47
2022-09-25T13:38:42.797Z,19.33
2022-09-25T13:41:24.378Z,19.18
2022-09-25T13:45:07.990Z,19.06
2022-09-25T13:48:07.895Z,18.91
2022-09-25T13:50:52.858Z,18.81
2022-09-25T13:53:53.002Z,18.61
2022-09-25T13:56:49.962Z,18.56
2022-09-25T13:59:43.380Z,18.47
2022-09-25T14:02:46.703Z,18.39
2022-09-25T14:05:32.662Z,18.21
2022-09-25T14:08:14.799Z,18.14
2022-09-25T14:10:56.320Z,18.06
2022-09-25T14:13:40.012Z,17.99
2022-09-25T14:16:28.520Z,17.97
2022-09-25T14:19:08.992Z,17.90
2022-09-25T14:21:51.512Z,17.89
2022-09-25T14:24:32.313Z,17.83
2022-09-25T14:27:28.235Z,17.81
2022-09-25T14:30:15.158Z,17.78
2022-09-25T14:33:23.532Z,17.76
2022-09-25T14:36:13.872Z,17.71
2022-09-25T14:39:17.783Z,17.68
2022-09-25T14:42:29.472Z,17.64
2022-09-25T14:45:39.521Z,17.59
2022-09-25T14:48:21.921Z,17.56
2022-09-25T14:51:03.982Z,17.54
2022-09-25T14:53:47.265Z,17.50
2022-09-25T14:56:34.671Z,17.47
2022-09-25T14:59:15.812Z,17.45
2022-09-25T15:01:56.028Z,17.43
2022-09-25T15:04:36.127Z,17.40
2022-09-25T15:07:21.191Z,17.32
2022-09-25T15:10:01.672Z,17.29
2022-09-25T15:12:49.734Z,17.24
2022-09-25T15:15:29.572Z,17.23
2022-09-25T15:18:05.315Z,17.20
2022-09-25T15:20:50.631Z,17.18
2022-09-25T15:23:30.601Z,17.09
2022-09-25T15:26:20.469Z,17.09
2022-09-25T15:29:04.623Z,17.08
2022-09-25T15:31:47.222Z,17.07
2022-09-25T15:34:28.080Z,17.08
2022-09-25T15:37:26.682Z,17.08
2022-09-25T15:40:29.025Z,17.06
2022-09-25T15:43:06.892Z,17.06
2022-09-25T15:46:22.322Z,17.04
2022-09-25T15:49:03.867Z,17.03
2022-09-25T15:51:41.683Z,17.01
2022-09-25T15:54:36.219Z,17.00
2022-09-25T15:57:19.782Z,16.98
2022-09-25T16:00:12.327Z,16.95
2022-09-25T16:03:14.726Z,16.93
2022-09-25T16:05:55.402Z,16.89
2022-09-25T16:08:36.988Z,16.85
2022-09-25T16:11:25.008Z,16.81
2022-09-25T16:14:29.718Z,16.78
2022-09-25T16:17:18.831Z,16.74
2022-09-25T16:20:31.227Z,16.67
2022-09-25T16:23:22.168Z,16.62
2022-09-25T16:26:00.837Z,16.55
2022-09-25T16:28:40.328Z,16.48
2022-09-25T16:31:17.621Z,16.37
2022-09-25T16:33:58.126Z,16.22
2022-09-25T16:36:48.858Z,16.10
2022-09-25T16:39:32.760Z,15.88
2022-09-25T16:42:36.006Z,15.69
2022-09-25T16:45:24.160Z,15.46
2022-09-25T16:48:32.709Z,15.27
2022-09-25T16:51:14.425Z,15.14
2022-09-25T16:53:55.653Z,14.94
2022-09-25T16:56:35.810Z,14.71
2022-09-25T16:59:22.575Z,14.61
2022-09-25T17:02:04.985Z,14.39
2022-09-25T17:04:45.069Z,14.20
2022-09-25T17:07:22.841Z,13.97
2022-09-25T17:10:03.104Z,13.84
2022-09-25T17:12:40.447Z,13.74
2022-09-25T17:15:31.521Z,13.61
2022-09-25T17:18:20.165Z,13.44
2022-09-25T17:21:00.221Z,13.29
2022-09-25T17:23:39.175Z,13.12
2022-09-25T17:26:24.271Z,12.98
2022-09-25T17:29:01.127Z,12.88
2022-09-25T17:31:39.849Z,12.79
2022-09-25T17:34:24.808Z,12.65
2022-09-25T17:37:02.488Z,12.55
